Time;durP1;ratioP1;P1;durP2;ratioP2;P2;SDS_P1;SDS_P2;PMS_P1;PMS_P2;Temp;Humidity;BMP_temperature;BMP_pressure;BME280_temperature;BME280_humidity;BME280_pressure;Samples;Min_cycle;Max_cycle;Signal;HPM_P1;HPM_P2
2022/07/24 00:02:36;;;;;;;8.95;4.13;;;;;;;19.30;72.60;100135.25;7397208;19;20011;-54
2022/07/24 00:05:04;;;;;;;8.90;4.20;;;;;;;19.27;72.95;100136.09;7399042;19;20365;-55
2022/07/24 00:10:57;;;;;;;11.93;4.10;;;;;;;19.20;73.08;100136.19;7397677;19;20014;-52
2022/07/24 00:13:45;;;;;;;7.28;3.65;;;;;;;19.16;73.23;100123.41;7398393;19;20091;-55
2022/07/24 00:24:04;;;;;;;8.82;3.95;;;;;;;19.14;72.74;100121.00;7391256;19;20006;-53
2022/07/24 01:31:18;;;;;;;6.05;3.00;;;;;;;18.80;72.49;100111.75;7387338;19;20016;-52
2022/07/24 01:34:07;;;;;;;6.88;3.80;;;;;;;18.82;72.48;100106.56;7395981;19;20023;-54
2022/07/24 01:40:21;;;;;;;5.25;3.20;;;;;;;18.84;72.02;100116.16;7401727;19;20023;-55
2022/07/24 01:42:49;;;;;;;5.43;3.08;;;;;;;18.84;72.17;100107.72;7405492;19;20499;-53
2022/07/24 01:52:33;;;;;;;6.57;3.08;;;;;;;18.75;71.50;100129.84;7398926;19;20010;-54
2022/07/24 01:55:01;;;;;;;4.78;2.65;;;;;;;18.70;71.90;100135.91;7400298;19;20030;-53
2022/07/24 01:57:28;;;;;;;9.57;3.10;;;;;;;18.67;72.00;100135.94;7406351;19;20021;-52
2022/07/24 01:59:58;;;;;;;6.68;3.00;;;;;;;18.61;71.70;100126.41;7402422;19;20105;-53
2022/07/24 02:02:27;;;;;;;3.75;2.85;;;;;;;18.56;71.91;100144.44;7403089;19;20498;-55
2022/07/24 02:04:54;;;;;;;6.10;2.90;;;;;;;18.51;71.99;100139.28;7401590;19;20018;-47
2022/07/24 02:07:22;;;;;;;7.70;4.55;;;;;;;18.47;72.14;100140.50;7404101;19;20037;-49
2022/07/24 02:09:50;;;;;;;7.68;3.03;;;;;;;18.41;72.23;100140.13;7399809;19;20018;-52
2022/07/24 02:12:17;;;;;;;8.23;3.75;;;;;;;18.38;72.79;100140.16;7405079;19;20098;-51
2022/07/24 02:14:45;;;;;;;4.80;2.90;;;;;;;18.37;72.55;100145.00;7398279;19;20019;-53
2022/07/24 02:17:12;;;;;;;7.68;3.40;;;;;;;18.32;72.95;100137.00;7404323;19;20006;-51
2022/07/24 02:19:40;;;;;;;4.90;2.90;;;;;;;18.31;72.97;100152.22;7402357;19;20405;-55
2022/07/24 02:22:08;;;;;;;9.60;2.75;;;;;;;18.26;72.89;100149.88;7405351;19;20482;-49
2022/07/24 02:24:35;;;;;;;9.25;4.38;;;;;;;18.21;73.21;100147.50;7399675;19;20458;-55
2022/07/24 02:27:03;;;;;;;5.78;3.10;;;;;;;18.20;73.45;100148.72;7402935;19;20345;-49
2022/07/24 02:29:30;;;;;;;7.57;2.70;;;;;;;18.19;73.43;100144.31;7399636;19;20018;-54
2022/07/24 02:35:58;;;;;;;7.47;3.22;;;;;;;18.14;73.86;100137.13;7400072;19;20017;-53
2022/07/24 02:38:26;;;;;;;6.93;2.38;;;;;;;18.17;73.08;100132.72;7402331;19;20010;-55
2022/07/24 02:41:14;;;;;;;7.07;3.15;;;;;;;18.16;72.98;100136.75;7401749;19;20397;-53
2022/07/24 02:44:02;;;;;;;3.17;2.25;;;;;;;18.09;73.07;100131.97;7403039;19;20077;-57
2022/07/24 02:46:50;;;;;;;6.93;2.83;;;;;;;18.07;73.28;100139.19;7399532;19;20398;-55
2022/07/24 02:53:34;;;;;;;7.43;2.58;;;;;;;17.90;74.19;100137.28;7404852;19;20010;-56
2022/07/24 03:00:16;;;;;;;4.47;2.78;;;;;;;17.86;74.09;100142.13;7402070;19;20011;-54
2022/07/24 03:03:04;;;;;;;10.20;3.53;;;;;;;17.85;74.30;100143.31;7401853;19;20452;-49
2022/07/24 03:05:52;;;;;;;7.75;2.67;;;;;;;17.85;74.14;100140.53;7403105;19;20070;-52
2022/07/24 03:08:40;;;;;;;8.65;3.60;;;;;;;17.82;74.73;100141.38;7401853;19;20077;-53
2022/07/24 03:11:28;;;;;;;6.70;2.30;;;;;;;17.81;74.84;100140.56;7400464;19;20023;-54
2022/07/24 03:14:16;;;;;;;6.78;2.83;;;;;;;17.82;74.90;100136.53;7401143;19;20011;-54
2022/07/24 03:17:04;;;;;;;5.00;2.22;;;;;;;17.80;74.77;100129.75;7401097;19;20037;-54
2022/07/24 03:19:52;;;;;;;5.38;2.17;;;;;;;17.83;74.96;100134.53;7402796;19;20017;-54
2022/07/24 03:30:37;;;;;;;3.83;1.58;;;;;;;17.83;75.23;100120.53;7397693;19;20351;-53
2022/07/24 03:37:25;;;;;;;6.95;2.15;;;;;;;17.86;74.78;100112.13;7396964;19;20010;-51
2022/07/24 03:39:53;;;;;;;1.92;1.63;;;;;;;17.89;75.26;100124.50;7399724;19;20030;-51
2022/07/24 03:42:22;;;;;;;2.63;1.55;;;;;;;17.91;75.15;100127.69;7402367;19;20467;-53
2022/07/24 03:49:04;;;;;;;4.25;1.80;;;;;;;17.92;75.55;100123.69;7399922;19;20006;-54
2022/07/24 03:51:53;;;;;;;4.93;2.20;;;;;;;17.95;74.77;100114.47;7397634;19;20480;-52
2022/07/24 03:54:41;;;;;;;4.88;2.70;;;;;;;17.96;74.94;100119.66;7400813;19;20015;-52
2022/07/24 03:57:29;;;;;;;6.40;2.10;;;;;;;17.99;75.09;100123.63;7400289;19;20420;-52
2022/07/24 04:04:21;;;;;;;9.60;2.58;;;;;;;17.95;75.30;100122.88;7398503;19;20018;-48
2022/07/24 04:06:49;;;;;;;9.30;3.55;;;;;;;17.96;74.79;100130.06;7396854;19;20011;-49
2022/07/24 04:09:16;;;;;;;4.75;2.60;;;;;;;17.96;74.54;100132.84;7399310;19;20475;-53
2022/07/24 04:11:59;;;;;;;11.23;3.25;;;;;;;17.95;74.60;100122.88;7397824;19;20011;-54
2022/07/24 04:14:27;;;;;;;7.20;3.75;;;;;;;17.95;74.64;100125.69;7399260;19;20022;-52
2022/07/24 04:16:55;;;;;;;8.90;3.25;;;;;;;17.94;74.33;100121.28;7397489;19;20014;-50
2022/07/24 04:19:23;;;;;;;10.38;3.03;;;;;;;17.94;74.56;100124.06;7400423;19;20015;-54
2022/07/24 04:21:50;;;;;;;13.43;4.20;;;;;;;17.93;74.12;100130.88;7399740;19;20480;-47
2022/07/24 04:24:18;;;;;;;10.38;3.65;;;;;;;17.89;74.37;100124.50;7398607;19;20017;-57
2022/07/24 04:26:45;;;;;;;11.00;3.83;;;;;;;17.89;74.22;100128.13;7395812;19;20356;-54
2022/07/24 04:29:13;;;;;;;9.50;3.65;;;;;;;17.87;74.36;100124.13;7400003;19;20015;-50
2022/07/24 04:31:48;;;;;;;7.72;3.30;;;;;;;17.83;74.32;100120.53;7395712;19;20026;-53
2022/07/24 04:34:16;;;;;;;11.80;3.50;;;;;;;17.79;74.41;100120.56;7398014;19;20047;-53
2022/07/24 04:36:45;;;;;;;10.77;3.33;;;;;;;17.76;74.66;100129.78;7395882;19;20086;-54
2022/07/24 04:39:13;;;;;;;6.75;3.30;;;;;;;17.72;74.53;100123.41;7397145;19;20337;-53
2022/07/24 04:41:42;;;;;;;12.98;4.10;;;;;;;17.71;74.68;100129.41;7397043;19;20409;-52
2022/07/24 04:44:09;;;;;;;8.80;3.63;;;;;;;17.70;74.19;100131.41;7396868;19;20082;-50
2022/07/24 04:46:37;;;;;;;11.18;3.10;;;;;;;17.64;74.50;100122.66;7396416;19;20464;-50
2022/07/24 04:49:05;;;;;;;12.32;3.53;;;;;;;17.65;74.34;100120.66;7398825;19;20039;-50
2022/07/24 04:51:33;;;;;;;8.15;3.42;;;;;;;17.65;74.54;100115.06;7397616;19;20082;-52
2022/07/24 04:54:01;;;;;;;13.07;4.25;;;;;;;17.66;74.54;100122.22;7400236;19;20014;-50
2022/07/24 04:56:31;;;;;;;8.43;3.35;;;;;;;17.66;74.68;100121.44;7398207;19;20025;-54
2022/07/24 04:59:01;;;;;;;6.00;2.72;;;;;;;17.67;74.64;100125.81;7395995;19;20010;-54
2022/07/24 05:01:30;;;;;;;14.50;5.60;;;;;;;17.64;74.77;100131.03;7398193;19;20011;-54
2022/07/24 05:03:58;;;;;;;9.20;3.53;;;;;;;17.62;74.68;100127.88;7398920;19;20495;-56
2022/07/24 05:06:26;;;;;;;9.70;3.00;;;;;;;17.64;74.45;100119.84;7394266;19;20460;-52
2022/07/24 05:08:54;;;;;;;9.73;3.67;;;;;;;17.66;74.75;100115.84;7398865;19;20081;-53
2022/07/24 05:11:21;;;;;;;7.43;3.10;;;;;;;17.66;74.69;100110.25;7395509;19;20014;-53
2022/07/24 05:13:49;;;;;;;10.00;2.90;;;;;;;17.66;74.48;100115.84;7394134;19;20018;-53
2022/07/24 05:16:17;;;;;;;13.30;3.15;;;;;;;17.64;74.45;100114.25;7395886;19;20011;-54
2022/07/24 05:18:46;;;;;;;9.52;2.90;;;;;;;17.62;74.50;100108.25;7396710;19;20029;-55
2022/07/24 05:21:14;;;;;;;9.98;3.65;;;;;;;17.63;74.60;100117.47;7397073;19;20019;-54
2022/07/24 05:23:43;;;;;;;10.02;2.97;;;;;;;17.67;74.42;100111.84;7395416;19;20526;-53
2022/07/24 05:26:10;;;;;;;6.90;3.72;;;;;;;17.70;74.81;100113.81;7397975;19;20010;-53
2022/07/24 05:28:42;;;;;;;10.07;2.88;;;;;;;17.75;74.57;100113.38;7396109;19;20011;-49
2022/07/24 05:31:09;;;;;;;6.40;2.50;;;;;;;17.79;74.62;100114.19;7395249;19;20014;-53
2022/07/24 05:33:37;;;;;;;7.40;2.90;;;;;;;17.80;74.30;100110.16;7395231;19;20003;-51
2022/07/24 05:36:05;;;;;;;8.25;3.20;;;;;;;17.78;74.38;100099.38;7394940;19;20043;-49
2022/07/24 05:38:33;;;;;;;8.85;2.85;;;;;;;17.79;74.18;100097.38;7393321;19;20352;-51
2022/07/24 05:41:01;;;;;;;15.50;2.85;;;;;;;17.79;74.11;100105.78;7396024;19;20048;-49
2022/07/24 05:43:30;;;;;;;11.05;4.07;;;;;;;17.78;74.32;100095.78;7397271;19;20400;-54
2022/07/24 05:45:58;;;;;;;10.18;3.20;;;;;;;17.77;74.11;100094.16;7393753;19;20483;-52
2022/07/24 05:48:25;;;;;;;7.65;2.45;;;;;;;17.80;74.13;100088.56;7392115;19;20022;-52
2022/07/24 05:51:13;;;;;;;10.15;3.20;;;;;;;17.84;73.76;100100.53;7389540;19;20014;-52
2022/07/24 05:54:02;;;;;;;11.07;3.45;;;;;;;17.89;73.84;100086.09;7395438;19;20021;-54
2022/07/24 05:56:50;;;;;;;9.57;3.40;;;;;;;17.91;73.97;100088.47;7398768;19;20027;-54
2022/07/24 05:59:38;;;;;;;5.13;2.10;;;;;;;17.95;73.51;100080.88;7395634;19;20010;-50
2022/07/24 06:05:52;;;;;;;10.05;3.88;;;;;;;18.01;73.22;100076.41;7394976;19;20010;-51
2022/07/24 06:08:40;;;;;;;10.75;2.88;;;;;;;18.04;73.53;100082.00;7396525;19;20002;-53
2022/07/24 06:15:19;;;;;;;12.93;3.15;;;;;;;18.15;73.01;100068.69;7387848;19;20360;-54
2022/07/24 06:18:07;;;;;;;9.77;3.03;;;;;;;18.16;72.92;100064.66;7394805;19;20014;-52
2022/07/24 06:20:55;;;;;;;9.43;2.97;;;;;;;18.20;73.14;100068.25;7395190;19;20014;-54
2022/07/24 06:23:43;;;;;;;4.53;2.33;;;;;;;18.23;72.94;100072.22;7404389;19;20066;-48
2022/07/24 06:26:31;;;;;;;9.05;2.60;;;;;;;18.27;72.54;100070.19;7403411;19;20031;-55
2022/07/24 06:29:39;;;;;;;7.88;2.63;;;;;;;18.28;72.34;100063.38;7404031;19;20519;-55
2022/07/24 06:32:27;;;;;;;9.70;2.45;;;;;;;18.34;72.20;100058.94;7403346;19;20022;-54
2022/07/24 06:35:15;;;;;;;8.25;2.33;;;;;;;18.40;72.17;100057.25;7404295;19;20081;-54
2022/07/24 06:38:03;;;;;;;5.97;2.33;;;;;;;18.46;72.37;100050.00;7404222;19;20369;-55
2022/07/24 06:40:50;;;;;;;8.82;2.53;;;;;;;18.53;72.28;100057.59;7401874;19;20027;-53
2022/07/24 06:43:38;;;;;;;9.60;3.08;;;;;;;18.60;71.82;100063.91;7405600;19;20385;-51
2022/07/24 06:46:26;;;;;;;9.52;3.10;;;;;;;18.65;71.35;100065.47;7399538;19;20010;-54
2022/07/24 06:48:54;;;;;;;10.18;2.78;;;;;;;18.66;71.55;100058.66;7402985;19;20014;-53
2022/07/24 06:51:22;;;;;;;9.60;2.63;;;;;;;18.70;71.03;100057.41;7397318;19;20006;-49
2022/07/24 06:53:49;;;;;;;5.80;2.03;;;;;;;18.74;70.78;100057.38;7399835;19;20018;-52
2022/07/24 06:56:17;;;;;;;14.88;3.95;;;;;;;18.75;70.84;100053.31;7398678;19;20006;-50
2022/07/24 06:58:45;;;;;;;8.63;2.65;;;;;;;18.80;70.13;100038.84;7401155;19;20401;-53
2022/07/24 07:01:13;;;;;;;9.43;2.72;;;;;;;18.87;70.29;100038.00;7401118;19;20018;-55
2022/07/24 07:03:42;;;;;;;6.53;2.72;;;;;;;18.93;70.32;100030.72;7398161;19;20014;-48
2022/07/24 07:06:09;;;;;;;7.22;2.30;;;;;;;19.00;69.92;100030.63;7400239;19;20471;-52
2022/07/24 07:08:37;;;;;;;10.35;2.58;;;;;;;19.07;69.84;100031.31;7401251;19;20020;-53
2022/07/24 07:11:05;;;;;;;9.10;2.33;;;;;;;19.14;69.58;100047.28;7395057;19;20030;-49
2022/07/24 07:17:04;;;;;;;4.60;2.20;;;;;;;19.25;69.06;100039.50;7395199;19;20022;-53
2022/07/24 07:22:57;;;;;;;8.63;2.38;;;;;;;19.41;68.88;100040.50;7401566;19;20078;-51
2022/07/24 07:25:44;;;;;;;5.38;1.90;;;;;;;19.55;68.38;100033.91;7400843;19;20031;-52
2022/07/24 07:35:43;;;;;;;10.20;3.63;;;;;;;19.87;67.66;100039.06;7396021;19;20014;-48
2022/07/24 07:38:10;;;;;;;7.03;2.60;;;;;;;19.94;67.25;100031.31;7401553;19;20022;-54
2022/07/24 07:40:38;;;;;;;5.22;2.08;;;;;;;19.99;67.23;100038.44;7395956;19;20014;-50
2022/07/24 07:43:05;;;;;;;5.97;2.35;;;;;;;20.00;66.66;100032.41;7398608;19;20370;-54
2022/07/24 07:45:34;;;;;;;7.22;2.15;;;;;;;19.99;66.75;100036.44;7400345;19;20408;-53
2022/07/24 07:48:02;;;;;;;7.90;2.35;;;;;;;20.05;67.61;100026.31;7398688;19;20014;-55
2022/07/24 07:50:30;;;;;;;6.63;1.95;;;;;;;20.22;68.09;100020.81;7397815;19;20360;-51
2022/07/24 07:56:22;;;;;;;6.50;2.13;;;;;;;20.80;69.39;100020.16;7398266;19;20367;-50
2022/07/24 07:58:50;;;;;;;10.35;2.83;;;;;;;21.12;69.23;100028.78;7397763;19;20483;-50
2022/07/24 08:01:18;;;;;;;9.27;2.55;;;;;;;21.45;67.67;100023.22;7395694;19;20014;-48
2022/07/24 08:03:45;;;;;;;4.35;2.10;;;;;;;21.71;66.00;100017.38;7401706;19;20007;-56
2022/07/24 08:06:13;;;;;;;4.75;2.00;;;;;;;21.93;64.76;100019.72;7397412;19;20014;-55
2022/07/24 08:08:46;;;;;;;5.57;2.55;;;;;;;21.91;62.62;100011.72;7400246;19;20010;-59
2022/07/24 08:11:14;;;;;;;5.90;2.13;;;;;;;22.06;61.72;100024.22;7398086;19;20022;-57
2022/07/24 08:13:42;;;;;;;7.40;2.10;;;;;;;22.35;61.12;100013.81;7399336;19;20487;-55
2022/07/24 08:16:09;;;;;;;5.57;2.17;;;;;;;22.74;60.23;100012.75;7393763;19;20475;-54
2022/07/24 08:18:37;;;;;;;7.60;2.45;;;;;;;22.99;59.68;100023.38;7397375;19;20007;-55
2022/07/24 08:21:05;;;;;;;6.15;2.83;;;;;;;23.00;59.41;100020.09;7397898;19;20018;-57
2022/07/24 08:23:33;;;;;;;7.28;2.47;;;;;;;22.99;58.98;100012.88;7397581;19;20018;-53
2022/07/24 08:26:00;;;;;;;4.43;1.88;;;;;;;23.03;58.76;100021.25;7398167;19;20018;-52
2022/07/24 08:36:00;;;;;;;3.15;1.50;;;;;;;22.50;56.65;99986.03;7397317;19;20006;-51
2022/07/24 08:38:48;;;;;;;24.55;4.18;;;;;;;22.27;57.74;99995.47;7401128;19;20014;-55
2022/07/24 08:41:38;;;;;;;5.45;2.45;;;;;;;22.13;57.64;99987.41;7399671;19;20023;-46
2022/07/24 08:48:20;;;;;;;6.55;2.28;;;;;;;23.19;58.48;99984.47;7397719;19;20018;-56
2022/07/24 08:51:09;;;;;;;4.88;1.92;;;;;;;23.97;57.93;99973.50;7396335;19;20010;-56
2022/07/24 08:53:58;;;;;;;3.40;2.00;;;;;;;24.67;55.81;99981.59;7397722;19;20492;-56
2022/07/24 09:04:35;;;;;;;6.70;2.03;;;;;;;24.80;52.82;99971.03;7399151;19;20034;-57
2022/07/24 09:07:24;;;;;;;4.15;2.28;;;;;;;25.23;52.59;99956.03;7400463;19;20006;-55
2022/07/24 09:10:15;;;;;;;4.85;2.40;;;;;;;25.44;52.23;99955.19;7395257;19;20010;-54
2022/07/24 09:13:15;;;;;;;5.05;2.13;;;;;;;25.87;50.05;99955.06;7399052;19;20026;-59
2022/07/24 09:16:03;;;;;;;3.88;1.63;;;;;;;26.12;50.66;99941.88;7393521;19;20011;-55
2022/07/24 09:19:32;;;;;;;5.45;2.45;;;;;;;26.06;47.96;99940.91;7396364;19;20011;-56
2022/07/24 09:22:24;;;;;;;6.22;3.30;;;;;;;25.88;49.06;99939.63;7398251;19;20066;-60
2022/07/24 09:25:17;;;;;;;5.47;2.08;;;;;;;26.00;48.52;99930.19;7397059;19;20476;-60
2022/07/24 09:28:06;;;;;;;4.82;2.38;;;;;;;26.61;48.83;99917.78;7394172;19;20013;-62
2022/07/24 09:30:37;;;;;;;7.00;2.13;;;;;;;26.97;48.10;99914.13;7392766;19;20018;-60
2022/07/24 09:33:13;;;;;;;7.05;3.15;;;;;;;27.29;47.00;99929.66;7396458;19;20015;-59
2022/07/24 09:35:47;;;;;;;4.72;2.47;;;;;;;27.37;46.20;99915.91;7396323;19;20007;-58
2022/07/24 09:38:22;;;;;;;5.65;2.25;;;;;;;27.38;46.62;99915.41;7398317;19;20022;-59
2022/07/24 09:41:50;;;;;;;5.35;2.33;;;;;;;27.39;45.10;99919.81;7396616;19;20078;-58
2022/07/24 09:48:35;;;;;;;5.25;2.15;;;;;;;27.48;45.15;99893.44;7392896;19;20014;-60
2022/07/24 09:54:44;;;;;;;3.22;2.03;;;;;;;27.92;44.77;99870.88;7398099;19;20352;-61
2022/07/24 10:01:18;;;;;;;10.40;2.35;;;;;;;28.10;43.33;99868.72;7404725;19;20468;-59
2022/07/24 10:04:08;;;;;;;2.70;2.17;;;;;;;28.27;44.03;99869.06;7404558;19;20345;-60
2022/07/24 10:06:58;;;;;;;6.43;2.95;;;;;;;28.42;43.57;99857.69;7400093;19;20014;-60
2022/07/24 10:13:20;;;;;;;6.32;2.70;;;;;;;28.90;43.55;99847.72;7405552;19;20468;-59
2022/07/24 10:16:04;;;;;;;5.28;2.50;;;;;;;29.15;42.30;99846.34;7395857;19;20021;-60
2022/07/24 10:18:49;;;;;;;8.15;2.30;;;;;;;28.95;40.65;99839.28;7399480;19;20026;-58
2022/07/24 10:25:25;;;;;;;5.18;2.58;;;;;;;28.41;42.75;99844.75;7401111;19;20011;-61
2022/07/24 10:32:04;;;;;;;5.00;2.70;;;;;;;27.98;43.77;99829.91;7397295;19;20021;-59
2022/07/24 10:34:55;;;;;;;7.53;1.88;;;;;;;28.19;43.13;99816.63;7403623;19;20082;-60
2022/07/24 10:37:45;;;;;;;3.15;1.50;;;;;;;27.89;42.87;99834.88;7404141;19;20372;-59
2022/07/24 10:40:51;;;;;;;5.00;2.30;;;;;;;27.84;42.35;99813.56;7404580;19;20345;-59
2022/07/24 10:43:39;;;;;;;2.70;1.42;;;;;;;27.72;42.59;99815.38;7401167;19;20074;-60
2022/07/24 10:46:07;;;;;;;5.65;1.80;;;;;;;27.48;43.12;99813.84;7402578;19;20022;-58
2022/07/24 11:13:49;;;;;;;4.07;1.33;;;;;;;24.88;50.18;99793.97;7345686;19;20011;-58
2022/07/24 11:19:45;;;;;;;2.05;0.60;;;;;;;25.20;49.61;99784.16;7345614;19;20022;-55
2022/07/24 11:26:50;;;;;;;2.05;0.77;;;;;;;25.18;49.68;99776.09;7352514;19;20011;-59
2022/07/24 11:29:38;;;;;;;2.67;0.90;;;;;;;25.05;50.10;99775.44;7351907;19;20014;-61
2022/07/24 11:32:11;;;;;;;2.45;1.13;;;;;;;24.99;50.32;99787.88;7350648;19;21151;-56
2022/07/24 11:35:04;;;;;;;1.27;0.70;;;;;;;24.97;50.47;99768.50;7353889;19;20017;-58
2022/07/24 11:37:52;;;;;;;2.97;1.30;;;;;;;24.96;50.35;99768.97;7351059;19;20014;-57
2022/07/24 11:40:40;;;;;;;1.17;0.77;;;;;;;24.92;50.88;99759.81;7364232;19;20100;-53
2022/07/24 11:47:24;;;;;;;3.22;1.05;;;;;;;24.94;51.14;99751.66;7396636;19;20009;-56
2022/07/24 11:50:12;;;;;;;1.23;0.80;;;;;;;24.83;51.23;99751.31;7399179;19;20062;-56
2022/07/24 11:56:04;;;;;;;2.75;0.90;;;;;;;24.58;51.57;99738.91;7401309;19;19911;-52
2022/07/24 12:02:32;;;;;;;3.30;1.13;;;;;;;24.81;52.13;99724.22;7400862;19;20028;-53
2022/07/24 12:09:11;;;;;;;1.35;0.60;;;;;;;24.81;51.99;99709.28;7402066;19;20024;-56
2022/07/24 12:15:46;;;;;;;0.70;0.70;;;;;;;25.20;50.67;99702.78;7402220;19;20361;-51
2022/07/24 12:22:26;;;;;;;0.77;0.52;;;;;;;25.54;49.99;99698.91;7401916;19;20014;-49
2022/07/24 12:33:19;;;;;;;2.80;1.67;;;;;;;25.46;48.80;99686.31;7400191;19;21169;-51
2022/07/24 12:36:17;;;;;;;2.97;1.50;;;;;;;25.20;48.84;99691.47;7402377;19;20006;-50
2022/07/24 12:39:05;;;;;;;2.08;1.30;;;;;;;24.99;48.73;99692.38;7397025;19;20007;-51
2022/07/24 12:41:48;;;;;;;2.25;1.73;;;;;;;24.83;49.14;99690.56;7401408;19;20010;-52
2022/07/24 12:51:12;;;;;;;3.20;1.60;;;;;;;24.31;50.48;99684.22;7397246;19;20026;-50
2022/07/24 12:53:42;;;;;;;3.60;1.70;;;;;;;24.33;50.85;99693.81;7396167;19;20018;-53
2022/07/24 12:56:09;;;;;;;5.47;2.00;;;;;;;24.33;50.63;99679.66;7394986;19;20019;-59
2022/07/24 12:59:01;;;;;;;6.47;2.00;;;;;;;24.34;50.63;99672.75;7397127;19;20015;-54
2022/07/24 13:09:29;;;;;;;3.80;1.70;;;;;;;24.18;51.21;99668.13;7396486;19;20011;-54
2022/07/24 13:15:29;;;;;;;2.72;1.73;;;;;;;24.30;50.30;99655.16;7388212;19;20021;-55
2022/07/24 13:17:57;;;;;;;3.50;1.77;;;;;;;24.27;50.15;99650.44;7393823;19;20018;-55
2022/07/24 13:24:07;;;;;;;3.97;1.83;;;;;;;24.40;50.49;99645.44;7397244;19;20007;-54
2022/07/24 13:26:37;;;;;;;4.30;1.70;;;;;;;24.64;50.42;99635.16;7395497;19;20471;-57
2022/07/24 13:29:05;;;;;;;2.20;1.75;;;;;;;24.64;50.14;99649.31;7397473;19;20026;-54
2022/07/24 13:31:32;;;;;;;1.98;1.65;;;;;;;24.60;50.44;99645.81;7399854;19;20551;-53
2022/07/24 13:38:08;;;;;;;2.50;1.63;;;;;;;24.99;49.84;99623.59;7402982;19;20014;-52
2022/07/24 13:40:35;;;;;;;3.63;1.77;;;;;;;25.10;49.82;99638.84;7405458;19;20014;-51
2022/07/24 13:43:03;;;;;;;2.33;1.52;;;;;;;25.15;50.24;99623.31;7404188;19;20488;-54
2022/07/24 13:45:32;;;;;;;2.47;1.40;;;;;;;25.24;49.88;99623.28;7405214;19;20011;-52
2022/07/24 13:48:00;;;;;;;1.75;1.15;;;;;;;25.19;49.42;99621.88;7406164;19;20003;-51
2022/07/24 13:50:28;;;;;;;1.50;1.27;;;;;;;25.17;49.81;99624.41;7402846;19;20025;-52
2022/07/24 14:01:06;;;;;;;2.00;1.90;;;;;;;25.80;48.86;99597.28;7406092;19;20022;-52
2022/07/24 14:07:41;;;;;;;2.95;1.20;;;;;;;26.22;48.72;99600.13;7406471;19;20007;-53
2022/07/24 14:10:29;;;;;;;2.20;1.13;;;;;;;26.22;48.25;99608.66;7406512;19;20006;-53
2022/07/24 14:17:17;;;;;;;1.98;1.55;;;;;;;26.42;47.99;99598.31;7405198;19;20003;-52
2022/07/24 14:23:38;;;;;;;3.17;1.10;;;;;;;26.41;47.53;99598.78;7402015;19;20021;-47
2022/07/24 14:26:26;;;;;;;4.20;2.10;;;;;;;26.20;47.79;99597.78;7399497;19;20037;-44
2022/07/24 14:30:01;;;;;;;1.40;1.30;;;;;;;26.11;47.67;99582.81;7403383;19;20011;-47
2022/07/24 14:32:49;;;;;;;3.92;2.33;;;;;;;26.36;47.38;99585.25;7399289;19;20010;-45
2022/07/24 14:38:53;;;;;;;7.80;6.70;;;;;;;26.11;47.25;99582.81;7401848;19;20070;-45
2022/07/24 14:41:21;;;;;;;5.93;5.05;;;;;;;26.02;47.43;99575.16;7404972;19;20011;-50
2022/07/24 14:43:50;;;;;;;5.13;2.05;;;;;;;26.16;47.12;99576.53;7399854;19;20035;-51
2022/07/24 14:46:17;;;;;;;5.80;2.85;;;;;;;26.18;47.41;99576.84;7403053;19;20022;-49
2022/07/24 14:48:45;;;;;;;7.90;3.20;;;;;;;26.35;46.99;99569.50;7402642;19;20010;-50
2022/07/24 14:51:12;;;;;;;3.42;1.50;;;;;;;26.56;46.53;99560.69;7402729;19;20006;-50
2022/07/24 14:54:00;;;;;;;5.57;2.08;;;;;;;26.48;45.82;99573.69;7398266;19;20472;-51
2022/07/24 15:00:06;;;;;;;3.78;1.60;;;;;;;25.80;47.23;99581.03;7400954;19;20487;-44
2022/07/24 15:02:33;;;;;;;2.63;1.75;;;;;;;25.49;47.86;99594.66;7402260;19;20006;-44
2022/07/24 15:05:23;;;;;;;3.53;1.52;;;;;;;25.20;48.55;99588.69;7398632;19;20017;-44
2022/07/24 15:07:56;;;;;;;4.53;1.83;;;;;;;25.29;48.30;99586.63;7402161;19;20378;-48
2022/07/24 15:10:23;;;;;;;5.00;1.42;;;;;;;25.16;48.65;99586.00;7403372;19;20011;-49
2022/07/24 15:34:00;;;;;;;2.55;1.10;;;;;;;25.44;49.96;99564.88;7398672;19;20011;-50
2022/07/24 15:40:04;;;;;;;2.85;1.50;;;;;;;25.86;48.89;99561.34;7397999;19;20010;-51
2022/07/24 15:46:02;;;;;;;2.80;1.20;;;;;;;26.03;48.82;99560.47;7398436;19;20010;-52
2022/07/24 15:52:13;;;;;;;2.78;1.10;;;;;;;25.44;49.01;99550.69;7400645;19;20006;-44
2022/07/24 15:54:40;;;;;;;3.17;1.65;;;;;;;25.18;49.06;99554.34;7393932;19;20021;-52
2022/07/24 15:57:19;;;;;;;4.20;1.40;;;;;;;24.98;49.25;99562.56;7397062;19;20042;-48
2022/07/24 16:03:33;;;;;;;3.13;1.05;;;;;;;24.41;50.14;99572.69;7400339;19;20484;-51
2022/07/24 16:06:00;;;;;;;4.95;0.73;;;;;;;24.20;51.16;99597.75;7397196;19;20011;-46
2022/07/24 16:08:31;;;;;;;1.17;0.45;;;;;;;23.68;54.17;99599.81;7399940;19;20015;-49
2022/07/24 16:22:11;;;;;;;1.33;0.40;;;;;;;21.92;60.23;99613.09;7399695;19;20066;-54
2022/07/24 16:24:38;;;;;;;0.93;0.73;;;;;;;21.92;61.26;99589.78;7399956;19;20010;-47
2022/07/24 16:38:24;;;;;;;2.47;0.60;;;;;;;23.00;61.08;99585.34;7400786;19;20014;-47
2022/07/24 16:41:16;;;;;;;2.17;0.80;;;;;;;23.43;61.16;99573.28;7399493;19;20011;-50
2022/07/24 16:44:06;;;;;;;1.27;0.50;;;;;;;23.55;61.52;99565.97;7397547;19;20474;-50
2022/07/24 16:46:55;;;;;;;1.98;0.55;;;;;;;23.73;61.04;99563.25;7397716;19;20007;-50
2022/07/24 16:49:43;;;;;;;2.15;0.43;;;;;;;23.72;60.65;99560.91;7396737;19;20460;-46
2022/07/24 16:52:30;;;;;;;4.10;0.50;;;;;;;23.52;60.92;99564.06;7395322;19;20011;-50
2022/07/24 16:55:38;;;;;;;1.60;0.70;;;;;;;23.37;61.35;99563.03;7398033;19;20026;-47
2022/07/24 16:58:26;;;;;;;1.45;0.60;;;;;;;23.16;61.33;99575.91;7399607;19;20013;-50
2022/07/24 17:01:14;;;;;;;2.55;0.68;;;;;;;22.75;62.88;99581.78;7396326;19;20396;-47
2022/07/24 17:04:03;;;;;;;3.60;0.80;;;;;;;22.55;63.58;99590.53;7398922;19;20017;-49
2022/07/24 17:10:58;;;;;;;2.00;0.70;;;;;;;21.93;64.12;99597.75;7393051;19;20356;-53
2022/07/24 17:13:26;;;;;;;1.63;0.60;;;;;;;22.03;64.50;99591.00;7397004;19;20015;-50
2022/07/24 17:19:59;;;;;;;1.23;0.63;;;;;;;22.13;64.15;99583.47;7395194;19;20480;-49
2022/07/24 17:22:47;;;;;;;5.25;1.73;;;;;;;22.28;64.25;99574.09;7397640;19;20014;-51
2022/07/24 17:26:25;;;;;;;1.75;0.98;;;;;;;22.56;65.32;99568.75;7395639;19;20475;-51
2022/07/24 17:29:13;;;;;;;1.58;0.70;;;;;;;23.19;63.48;99560.06;7394946;19;20021;-50
2022/07/24 17:32:29;;;;;;;1.60;0.35;;;;;;;23.53;63.02;99560.81;7390765;19;20785;-51
2022/07/24 17:41:53;;;;;;;1.02;0.60;;;;;;;23.83;62.06;99562.03;7392006;19;20475;-49
2022/07/24 17:44:21;;;;;;;1.83;0.60;;;;;;;23.81;61.86;99563.75;7397671;19;20042;-51
2022/07/24 17:50:35;;;;;;;2.80;0.98;;;;;;;23.69;61.28;99561.81;7395768;19;20011;-49
2022/07/24 17:53:02;;;;;;;4.57;1.88;;;;;;;23.58;61.77;99557.38;7395632;19;20018;-49
2022/07/24 17:55:30;;;;;;;3.50;0.82;;;;;;;23.55;61.65;99549.81;7396640;19;20019;-50
2022/07/24 17:57:58;;;;;;;1.75;0.90;;;;;;;23.46;61.65;99552.59;7394383;19;20040;-52
2022/07/24 18:00:25;;;;;;;1.27;0.90;;;;;;;23.59;62.11;99547.63;7396930;19;20018;-50
2022/07/24 18:02:53;;;;;;;1.48;0.55;;;;;;;23.59;61.92;99547.63;7395830;19;20090;-47
2022/07/24 18:09:09;;;;;;;2.03;0.68;;;;;;;23.35;61.90;99549.34;7393181;19;20348;-49
2022/07/24 18:11:36;;;;;;;3.72;0.90;;;;;;;23.15;61.58;99545.28;7394844;19;20018;-50
2022/07/24 18:14:04;;;;;;;2.58;1.15;;;;;;;23.06;61.65;99540.34;7393893;19;20015;-52
2022/07/24 18:16:32;;;;;;;5.25;1.48;;;;;;;22.95;62.30;99539.97;7389409;19;20018;-49
2022/07/24 18:18:59;;;;;;;2.25;1.00;;;;;;;22.81;62.50;99544.09;7403314;19;20399;-51
2022/07/24 18:21:27;;;;;;;3.28;0.90;;;;;;;22.75;62.53;99545.91;7398590;19;20010;-49
2022/07/24 18:23:54;;;;;;;6.88;1.88;;;;;;;22.57;62.44;99553.38;7398088;19;21420;-49
2022/07/24 18:26:22;;;;;;;7.30;1.60;;;;;;;22.43;61.76;99558.25;7405714;19;20010;-48
2022/07/24 18:28:49;;;;;;;8.18;2.58;;;;;;;22.31;62.05;99567.53;7402084;19;20528;-49
2022/07/24 18:31:17;;;;;;;7.05;2.30;;;;;;;22.18;62.12;99561.13;7400709;19;20019;-51
2022/07/24 18:33:51;;;;;;;8.43;3.55;;;;;;;22.03;62.10;99545.91;7396403;19;20010;-49
2022/07/24 18:40:15;;;;;;;5.28;2.63;;;;;;;22.00;61.93;99554.50;7402494;19;20018;-51
2022/07/24 18:57:38;;;;;;;9.25;2.75;;;;;;;22.08;60.34;99553.03;7400012;19;20015;-50